TimeCDT,TemperatureF,Dew PointF,Humidity,Sea Level PressureIn,VisibilityMPH,Wind Direction,Wind SpeedMPH,Gust SpeedMPH,PrecipitationIn,Events,Conditions,WindDirDegrees,DateUTC
12:15 AM,51.4,48.6,90,29.97,10.0,Calm,Calm,-,N/A,,Clear,0,2013-09-22 05:15:00
12:35 AM,50.9,48.6,92,29.96,10.0,Calm,Calm,-,N/A,,Clear,0,2013-09-22 05:35:00
12:55 AM,50.9,48.2,90,29.97,10.0,Calm,Calm,-,N/A,,Clear,0,2013-09-22 05:55:00
1:15 AM,50.7,48.0,90,29.97,10.0,Calm,Calm,-,N/A,,Clear,0,2013-09-22 06:15:00
1:35 AM,49.8,47.1,90,29.98,10.0,Calm,Calm,-,N/A,,Clear,0,2013-09-22 06:35:00
1:55 AM,50.5,47.3,89,29.97,10.0,Calm,Calm,-,N/A,,Clear,0,2013-09-22 06:55:00
2:15 AM,50.2,47.1,89,29.97,10.0,Calm,Calm,-,N/A,,Clear,0,2013-09-22 07:15:00
2:35 AM,49.5,47.1,92,29.97,10.0,Calm,Calm,-,N/A,,Clear,0,2013-09-22 07:35:00
2:55 AM,49.1,46.4,90,29.97,10.0,Calm,Calm,-,N/A,,Clear,0,2013-09-22 07:55:00
3:15 AM,48.7,46.4,92,29.97,10.0,Calm,Calm,-,N/A,,Clear,0,2013-09-22 08:15:00
3:35 AM,48.4,45.7,90,29.97,10.0,Calm,Calm,-,N/A,,Clear,0,2013-09-22 08:35:00
3:55 AM,48.6,46.4,92,29.97,10.0,Calm,Calm,-,N/A,,Clear,0,2013-09-22 08:55:00
4:15 AM,48.4,45.7,90,29.98,10.0,Calm,Calm,-,N/A,,Clear,0,2013-09-22 09:15:00
4:35 AM,48.2,45.9,92,29.99,10.0,Calm,Calm,-,N/A,,Clear,0,2013-09-22 09:35:00
4:55 AM,48.0,45.3,90,29.99,10.0,Calm,Calm,-,N/A,,Clear,0,2013-09-22 09:55:00
5:15 AM,47.3,44.6,90,29.99,10.0,Calm,Calm,-,N/A,,Clear,0,2013-09-22 10:15:00
5:35 AM,47.3,44.8,91,30.00,10.0,Calm,Calm,-,N/A,,Clear,0,2013-09-22 10:35:00
5:55 AM,47.5,45.0,91,30.00,10.0,Calm,Calm,-,N/A,,Clear,0,2013-09-22 10:55:00
6:15 AM,46.9,44.4,91,30.00,10.0,Calm,Calm,-,N/A,,Clear,0,2013-09-22 11:15:00
6:35 AM,46.9,44.6,92,30.01,10.0,Calm,Calm,-,N/A,,Clear,0,2013-09-22 11:35:00
6:55 AM,46.4,44.1,92,30.01,10.0,Calm,Calm,-,N/A,,Clear,0,2013-09-22 11:55:00
7:15 AM,47.1,44.8,92,30.01,10.0,Calm,Calm,-,N/A,,Clear,0,2013-09-22 12:15:00
7:35 AM,48.9,45.9,89,30.02,10.0,Calm,Calm,-,N/A,,Clear,0,2013-09-22 12:35:00
7:55 AM,51.4,48.0,88,30.03,10.0,Calm,Calm,-,N/A,,Clear,0,2013-09-22 12:55:00
8:15 AM,54.5,50.0,85,30.03,10.0,Calm,Calm,-,N/A,,Clear,0,2013-09-22 13:15:00
8:35 AM,56.7,50.7,80,30.04,10.0,Calm,Calm,-,N/A,,Clear,0,2013-09-22 13:35:00
8:55 AM,58.8,51.4,76,30.04,10.0,Calm,Calm,-,N/A,,Clear,0,2013-09-22 13:55:00
9:15 AM,60.1,52.3,76,30.05,10.0,Calm,Calm,-,N/A,,Clear,0,2013-09-22 14:15:00
9:35 AM,61.3,52.7,73,30.05,10.0,Calm,Calm,-,N/A,,Clear,0,2013-09-22 14:35:00
9:55 AM,63.0,53.2,71,30.05,10.0,Calm,Calm,-,N/A,,Clear,0,2013-09-22 14:55:00
10:15 AM,64.0,52.9,67,30.05,10.0,Calm,Calm,-,N/A,,Clear,0,2013-09-22 15:15:00
10:35 AM,65.7,53.4,65,30.05,5.0,Calm,Calm,-,N/A,,Haze,0,2013-09-22 15:35:00
10:55 AM,66.2,52.2,61,30.05,7.0,East,3.5,-,N/A,,Clear,90,2013-09-22 15:55:00
11:15 AM,67.3,53.6,61,30.05,1.8,Calm,Calm,-,N/A,,Haze,0,2013-09-22 16:15:00
11:35 AM,68.0,51.4,55,30.04,10.0,Calm,Calm,-,N/A,,Clear,0,2013-09-22 16:35:00
11:55 AM,68.4,50.7,53,30.04,10.0,ESE,3.5,-,N/A,,Clear,110,2013-09-22 16:55:00
12:15 PM,69.1,49.8,50,30.03,10.0,ENE,4.6,-,N/A,,Clear,60,2013-09-22 17:15:00
12:35 PM,69.1,48.6,48,30.02,10.0,NNE,4.6,-,N/A,,Clear,30,2013-09-22 17:35:00
12:55 PM,69.6,49.5,49,30.02,10.0,NE,4.6,-,N/A,,Clear,40,2013-09-22 17:55:00
1:15 PM,70.5,49.5,47,30.02,10.0,ESE,3.5,-,N/A,,Clear,110,2013-09-22 18:15:00
1:35 PM,69.6,49.5,49,30.01,10.0,NW,5.8,-,N/A,,Clear,320,2013-09-22 18:35:00
1:55 PM,71.8,50.0,46,30.00,10.0,Calm,Calm,-,N/A,,Clear,0,2013-09-22 18:55:00
2:15 PM,70.9,49.3,46,30.00,10.0,Calm,Calm,-,N/A,,Clear,0,2013-09-22 19:15:00
2:35 PM,72.5,50.2,45,29.99,10.0,ENE,8.1,-,N/A,,Clear,60,2013-09-22 19:35:00
2:55 PM,72.9,50.5,45,29.99,10.0,East,5.8,-,N/A,,Clear,80,2013-09-22 19:55:00
3:15 PM,72.1,49.5,45,29.98,10.0,Calm,Calm,-,N/A,,Clear,0,2013-09-22 20:15:00
3:35 PM,73.0,49.6,44,29.97,10.0,ENE,3.5,-,N/A,,Clear,60,2013-09-22 20:35:00
3:55 PM,72.7,50.2,45,29.97,10.0,East,6.9,-,N/A,,Clear,80,2013-09-22 20:55:00
4:15 PM,73.2,49.6,43,29.97,10.0,Calm,Calm,-,N/A,,Clear,0,2013-09-22 21:15:00
4:35 PM,72.7,49.8,44,29.96,10.0,ENE,4.6,-,N/A,,Clear,70,2013-09-22 21:35:00
4:55 PM,72.7,48.4,42,29.96,10.0,ENE,5.8,-,N/A,,Clear,70,2013-09-22 21:55:00
5:15 PM,72.7,49.6,44,29.96,10.0,ENE,6.9,-,N/A,,Clear,70,2013-09-22 22:15:00
5:35 PM,72.0,48.7,44,29.96,10.0,ENE,4.6,-,N/A,,Clear,60,2013-09-22 22:35:00
5:55 PM,71.8,49.5,45,29.96,10.0,ENE,3.5,-,N/A,,Clear,70,2013-09-22 22:55:00
6:15 PM,70.7,51.6,51,29.96,10.0,East,3.5,-,N/A,,Clear,80,2013-09-22 23:15:00
6:35 PM,68.7,52.3,56,29.96,10.0,East,3.5,-,N/A,,Clear,80,2013-09-22 23:35:00
6:55 PM,65.1,53.2,65,29.96,10.0,Calm,Calm,-,N/A,,Clear,0,2013-09-22 23:55:00
7:15 PM,62.2,52.9,71,29.96,10.0,East,3.5,-,N/A,,Clear,80,2013-09-23 00:15:00
7:35 PM,61.0,53.4,76,29.96,10.0,East,3.5,-,N/A,,Clear,80,2013-09-23 00:35:00
7:55 PM,59.4,53.6,81,29.97,10.0,Calm,Calm,-,N/A,,Clear,0,2013-09-23 00:55:00
8:15 PM,59.2,53.2,81,29.97,10.0,ENE,3.5,-,N/A,,Clear,70,2013-09-23 01:15:00
8:35 PM,57.6,52.3,83,29.98,10.0,East,3.5,-,N/A,,Clear,80,2013-09-23 01:35:00
8:55 PM,57.7,51.8,81,29.98,10.0,ENE,3.5,-,N/A,,Clear,70,2013-09-23 01:55:00
9:15 PM,57.9,51.8,80,29.98,10.0,East,3.5,-,N/A,,Clear,80,2013-09-23 02:15:00
9:35 PM,57.2,51.8,82,29.98,10.0,East,3.5,-,N/A,,Clear,80,2013-09-23 02:35:00
9:55 PM,56.5,51.6,84,29.99,10.0,Calm,Calm,-,N/A,,Clear,0,2013-09-23 02:55:00
10:15 PM,55.8,51.3,85,29.99,10.0,Calm,Calm,-,N/A,,Clear,0,2013-09-23 03:15:00
10:35 PM,54.7,50.9,87,29.99,10.0,Calm,Calm,-,N/A,,Clear,0,2013-09-23 03:35:00
10:55 PM,54.5,50.9,88,30.00,10.0,Calm,Calm,-,N/A,,Clear,0,2013-09-23 03:55:00
11:15 PM,53.8,50.4,88,30.00,10.0,Calm,Calm,-,N/A,,Clear,0,2013-09-23 04:15:00
11:35 PM,53.6,50.4,89,30.00,10.0,Calm,Calm,-,N/A,,Clear,0,2013-09-23 04:35:00
11:55 PM,53.1,49.3,87,30.00,10.0,Calm,Calm,-,N/A,,Clear,0,2013-09-23 04:55:00